sensor_id;sensor_type;location;lat;lon;timestamp;P1;durP1;ratioP1;P2;durP2;ratioP2
52354;SDS011;38286;51.156;17.038;2022-12-05T00:01:10;81.38;;;27.80;;
52354;SDS011;38286;51.156;17.038;2022-12-05T00:03:47;67.53;;;24.52;;
52354;SDS011;38286;51.156;17.038;2022-12-05T00:06:14;77.78;;;27.35;;
52354;SDS011;38286;51.156;17.038;2022-12-05T00:08:41;78.53;;;29.25;;
52354;SDS011;38286;51.156;17.038;2022-12-05T00:11:13;77.13;;;26.75;;
52354;SDS011;38286;51.156;17.038;2022-12-05T00:13:43;74.07;;;26.98;;
52354;SDS011;38286;51.156;17.038;2022-12-05T00:16:10;78.72;;;27.23;;
52354;SDS011;38286;51.156;17.038;2022-12-05T00:18:37;82.25;;;28.95;;
52354;SDS011;38286;51.156;17.038;2022-12-05T00:21:03;79.50;;;28.73;;
52354;SDS011;38286;51.156;17.038;2022-12-05T00:23:29;79.38;;;28.38;;
52354;SDS011;38286;51.156;17.038;2022-12-05T00:25:54;72.05;;;25.98;;
52354;SDS011;38286;51.156;17.038;2022-12-05T00:28:20;68.60;;;22.83;;
52354;SDS011;38286;51.156;17.038;2022-12-05T00:30:46;79.18;;;26.80;;
52354;SDS011;38286;51.156;17.038;2022-12-05T00:33:12;86.40;;;28.80;;
52354;SDS011;38286;51.156;17.038;2022-12-05T00:35:37;88.50;;;27.70;;
52354;SDS011;38286;51.156;17.038;2022-12-05T00:38:03;74.78;;;25.80;;
52354;SDS011;38286;51.156;17.038;2022-12-05T00:40:28;90.00;;;27.90;;
52354;SDS011;38286;51.156;17.038;2022-12-05T00:42:54;97.30;;;30.00;;
52354;SDS011;38286;51.156;17.038;2022-12-05T00:45:20;89.07;;;29.02;;
52354;SDS011;38286;51.156;17.038;2022-12-05T00:47:46;87.03;;;28.55;;
52354;SDS011;38286;51.156;17.038;2022-12-05T00:50:11;82.60;;;27.70;;
52354;SDS011;38286;51.156;17.038;2022-12-05T00:52:37;81.05;;;27.48;;
52354;SDS011;38286;51.156;17.038;2022-12-05T00:55:02;64.32;;;21.98;;
52354;SDS011;38286;51.156;17.038;2022-12-05T00:57:29;86.32;;;28.48;;
52354;SDS011;38286;51.156;17.038;2022-12-05T00:59:54;82.38;;;25.55;;
52354;SDS011;38286;51.156;17.038;2022-12-05T01:02:20;79.53;;;26.08;;
52354;SDS011;38286;51.156;17.038;2022-12-05T01:04:45;72.13;;;24.58;;
52354;SDS011;38286;51.156;17.038;2022-12-05T01:07:11;76.25;;;27.55;;
52354;SDS011;38286;51.156;17.038;2022-12-05T01:09:37;80.45;;;27.23;;
52354;SDS011;38286;51.156;17.038;2022-12-05T01:12:02;69.80;;;23.33;;
52354;SDS011;38286;51.156;17.038;2022-12-05T01:14:28;86.35;;;27.98;;
52354;SDS011;38286;51.156;17.038;2022-12-05T01:16:54;76.70;;;26.77;;
52354;SDS011;38286;51.156;17.038;2022-12-05T01:19:22;73.20;;;26.02;;
52354;SDS011;38286;51.156;17.038;2022-12-05T01:21:50;81.18;;;26.20;;
52354;SDS011;38286;51.156;17.038;2022-12-05T01:24:16;76.28;;;25.75;;
52354;SDS011;38286;51.156;17.038;2022-12-05T01:26:43;78.97;;;27.40;;
52354;SDS011;38286;51.156;17.038;2022-12-05T01:29:09;60.88;;;19.52;;
52354;SDS011;38286;51.156;17.038;2022-12-05T01:31:37;81.63;;;27.48;;
52354;SDS011;38286;51.156;17.038;2022-12-05T01:34:03;77.97;;;25.73;;
52354;SDS011;38286;51.156;17.038;2022-12-05T01:36:30;85.93;;;29.15;;
52354;SDS011;38286;51.156;17.038;2022-12-05T01:38:56;79.07;;;27.48;;
52354;SDS011;38286;51.156;17.038;2022-12-05T01:41:23;80.30;;;28.92;;
52354;SDS011;38286;51.156;17.038;2022-12-05T01:46:24;77.75;;;27.35;;
52354;SDS011;38286;51.156;17.038;2022-12-05T01:48:51;82.25;;;29.00;;
52354;SDS011;38286;51.156;17.038;2022-12-05T01:51:18;72.72;;;28.02;;
52354;SDS011;38286;51.156;17.038;2022-12-05T01:53:44;79.10;;;27.67;;
52354;SDS011;38286;51.156;17.038;2022-12-05T01:56:10;69.25;;;25.65;;
52354;SDS011;38286;51.156;17.038;2022-12-05T01:58:36;69.82;;;25.67;;
52354;SDS011;38286;51.156;17.038;2022-12-05T02:01:03;73.65;;;26.10;;
52354;SDS011;38286;51.156;17.038;2022-12-05T02:03:29;78.88;;;26.27;;
52354;SDS011;38286;51.156;17.038;2022-12-05T02:05:55;71.75;;;26.50;;
52354;SDS011;38286;51.156;17.038;2022-12-05T02:08:21;73.28;;;27.60;;
52354;SDS011;38286;51.156;17.038;2022-12-05T02:10:49;74.10;;;26.48;;
52354;SDS011;38286;51.156;17.038;2022-12-05T02:26:58;62.33;;;24.15;;
52354;SDS011;38286;51.156;17.038;2022-12-05T02:38:35;64.10;;;24.15;;
52354;SDS011;38286;51.156;17.038;2022-12-05T02:46:06;69.05;;;25.80;;
52354;SDS011;38286;51.156;17.038;2022-12-05T02:48:34;64.22;;;24.52;;
52354;SDS011;38286;51.156;17.038;2022-12-05T02:51:01;64.22;;;23.63;;
52354;SDS011;38286;51.156;17.038;2022-12-05T02:53:29;59.60;;;22.48;;
52354;SDS011;38286;51.156;17.038;2022-12-05T02:55:55;63.50;;;23.90;;
52354;SDS011;38286;51.156;17.038;2022-12-05T02:58:23;68.75;;;25.63;;
52354;SDS011;38286;51.156;17.038;2022-12-05T03:00:53;67.93;;;24.70;;
52354;SDS011;38286;51.156;17.038;2022-12-05T03:03:20;60.00;;;23.17;;
52354;SDS011;38286;51.156;17.038;2022-12-05T03:05:58;60.20;;;23.65;;
52354;SDS011;38286;51.156;17.038;2022-12-05T03:08:29;61.78;;;22.90;;
52354;SDS011;38286;51.156;17.038;2022-12-05T03:11:00;62.67;;;23.73;;
52354;SDS011;38286;51.156;17.038;2022-12-05T03:13:32;57.67;;;23.27;;
52354;SDS011;38286;51.156;17.038;2022-12-05T03:16:04;62.75;;;23.13;;
52354;SDS011;38286;51.156;17.038;2022-12-05T03:18:38;68.90;;;25.10;;
52354;SDS011;38286;51.156;17.038;2022-12-05T03:21:14;63.37;;;23.27;;
52354;SDS011;38286;51.156;17.038;2022-12-05T03:23:52;56.30;;;21.73;;
52354;SDS011;38286;51.156;17.038;2022-12-05T03:26:28;63.85;;;23.33;;
52354;SDS011;38286;51.156;17.038;2022-12-05T03:29:13;63.85;;;23.67;;
52354;SDS011;38286;51.156;17.038;2022-12-05T03:32:20;63.17;;;23.33;;
52354;SDS011;38286;51.156;17.038;2022-12-05T03:34:48;60.58;;;24.02;;
52354;SDS011;38286;51.156;17.038;2022-12-05T03:50:45;57.50;;;22.52;;
52354;SDS011;38286;51.156;17.038;2022-12-05T03:56:18;56.33;;;23.00;;
52354;SDS011;38286;51.156;17.038;2022-12-05T03:58:51;62.08;;;23.30;;
52354;SDS011;38286;51.156;17.038;2022-12-05T04:01:20;59.75;;;23.15;;
52354;SDS011;38286;51.156;17.038;2022-12-05T04:03:51;60.05;;;22.33;;
52354;SDS011;38286;51.156;17.038;2022-12-05T04:06:27;56.03;;;23.50;;
52354;SDS011;38286;51.156;17.038;2022-12-05T04:09:05;59.55;;;23.80;;
52354;SDS011;38286;51.156;17.038;2022-12-05T04:11:35;60.08;;;23.52;;
52354;SDS011;38286;51.156;17.038;2022-12-05T04:14:06;56.95;;;22.98;;
52354;SDS011;38286;51.156;17.038;2022-12-05T04:16:36;56.22;;;20.35;;
52354;SDS011;38286;51.156;17.038;2022-12-05T04:19:24;57.30;;;22.08;;
52354;SDS011;38286;51.156;17.038;2022-12-05T04:21:53;55.53;;;21.77;;
52354;SDS011;38286;51.156;17.038;2022-12-05T04:24:22;60.70;;;22.00;;
52354;SDS011;38286;51.156;17.038;2022-12-05T04:27:21;60.22;;;21.42;;
52354;SDS011;38286;51.156;17.038;2022-12-05T04:29:59;57.80;;;21.70;;
52354;SDS011;38286;51.156;17.038;2022-12-05T04:35:34;56.17;;;21.33;;
52354;SDS011;38286;51.156;17.038;2022-12-05T04:38:03;62.35;;;21.67;;
52354;SDS011;38286;51.156;17.038;2022-12-05T04:40:38;55.78;;;21.27;;
52354;SDS011;38286;51.156;17.038;2022-12-05T04:43:08;59.10;;;22.17;;
52354;SDS011;38286;51.156;17.038;2022-12-05T04:45:35;55.35;;;20.33;;
52354;SDS011;38286;51.156;17.038;2022-12-05T04:48:05;59.15;;;22.80;;
52354;SDS011;38286;51.156;17.038;2022-12-05T04:50:34;54.08;;;21.50;;
52354;SDS011;38286;51.156;17.038;2022-12-05T04:53:01;57.35;;;23.05;;
52354;SDS011;38286;51.156;17.038;2022-12-05T04:55:27;50.85;;;18.38;;
52354;SDS011;38286;51.156;17.038;2022-12-05T04:57:56;56.47;;;20.15;;
52354;SDS011;38286;51.156;17.038;2022-12-05T05:00:26;58.55;;;20.08;;
52354;SDS011;38286;51.156;17.038;2022-12-05T05:02:55;57.75;;;20.48;;
52354;SDS011;38286;51.156;17.038;2022-12-05T05:05:28;51.83;;;21.67;;
52354;SDS011;38286;51.156;17.038;2022-12-05T05:07:54;53.88;;;19.70;;
52354;SDS011;38286;51.156;17.038;2022-12-05T05:10:23;57.97;;;22.83;;
52354;SDS011;38286;51.156;17.038;2022-12-05T05:12:51;58.25;;;23.05;;
52354;SDS011;38286;51.156;17.038;2022-12-05T05:15:17;55.83;;;21.38;;
52354;SDS011;38286;51.156;17.038;2022-12-05T05:17:43;56.85;;;21.58;;
52354;SDS011;38286;51.156;17.038;2022-12-05T05:20:08;61.90;;;23.05;;
52354;SDS011;38286;51.156;17.038;2022-12-05T05:22:50;60.85;;;23.08;;
52354;SDS011;38286;51.156;17.038;2022-12-05T05:25:17;62.78;;;22.63;;
52354;SDS011;38286;51.156;17.038;2022-12-05T05:27:47;51.63;;;19.92;;
52354;SDS011;38286;51.156;17.038;2022-12-05T05:30:14;56.20;;;22.30;;
52354;SDS011;38286;51.156;17.038;2022-12-05T05:32:41;56.20;;;20.13;;
52354;SDS011;38286;51.156;17.038;2022-12-05T05:35:06;62.20;;;21.88;;
52354;SDS011;38286;51.156;17.038;2022-12-05T05:37:32;59.55;;;22.50;;
52354;SDS011;38286;51.156;17.038;2022-12-05T05:39:58;57.40;;;22.08;;
52354;SDS011;38286;51.156;17.038;2022-12-05T05:42:23;59.58;;;21.75;;
52354;SDS011;38286;51.156;17.038;2022-12-05T05:44:49;60.00;;;21.88;;
52354;SDS011;38286;51.156;17.038;2022-12-05T05:47:15;59.05;;;22.50;;
52354;SDS011;38286;51.156;17.038;2022-12-05T05:49:40;56.10;;;20.92;;
52354;SDS011;38286;51.156;17.038;2022-12-05T05:52:06;54.08;;;21.52;;
52354;SDS011;38286;51.156;17.038;2022-12-05T05:54:31;56.17;;;21.10;;
52354;SDS011;38286;51.156;17.038;2022-12-05T05:56:57;54.67;;;21.55;;
52354;SDS011;38286;51.156;17.038;2022-12-05T05:59:23;55.20;;;20.60;;
52354;SDS011;38286;51.156;17.038;2022-12-05T06:01:49;52.25;;;19.27;;
52354;SDS011;38286;51.156;17.038;2022-12-05T06:04:14;53.90;;;21.60;;
52354;SDS011;38286;51.156;17.038;2022-12-05T06:06:40;50.83;;;22.35;;
52354;SDS011;38286;51.156;17.038;2022-12-05T06:09:06;54.42;;;21.45;;
52354;SDS011;38286;51.156;17.038;2022-12-05T06:11:32;56.97;;;21.75;;
52354;SDS011;38286;51.156;17.038;2022-12-05T06:13:58;53.42;;;19.80;;
52354;SDS011;38286;51.156;17.038;2022-12-05T06:16:27;52.95;;;21.08;;
52354;SDS011;38286;51.156;17.038;2022-12-05T06:18:53;58.47;;;21.77;;
52354;SDS011;38286;51.156;17.038;2022-12-05T06:21:19;47.40;;;17.52;;
52354;SDS011;38286;51.156;17.038;2022-12-05T06:23:45;46.55;;;18.63;;
52354;SDS011;38286;51.156;17.038;2022-12-05T06:26:11;50.90;;;20.23;;
52354;SDS011;38286;51.156;17.038;2022-12-05T06:28:39;54.75;;;21.08;;
52354;SDS011;38286;51.156;17.038;2022-12-05T06:31:06;52.25;;;21.73;;
52354;SDS011;38286;51.156;17.038;2022-12-05T06:33:35;49.95;;;19.67;;
52354;SDS011;38286;51.156;17.038;2022-12-05T06:36:06;50.47;;;20.92;;
52354;SDS011;38286;51.156;17.038;2022-12-05T06:38:33;58.90;;;23.58;;
52354;SDS011;38286;51.156;17.038;2022-12-05T06:40:59;60.58;;;22.60;;
52354;SDS011;38286;51.156;17.038;2022-12-05T06:43:25;48.88;;;19.67;;
52354;SDS011;38286;51.156;17.038;2022-12-05T06:45:50;51.97;;;21.70;;
52354;SDS011;38286;51.156;17.038;2022-12-05T06:48:16;47.40;;;19.40;;
52354;SDS011;38286;51.156;17.038;2022-12-05T06:50:51;54.15;;;21.98;;
52354;SDS011;38286;51.156;17.038;2022-12-05T06:53:18;53.97;;;21.33;;
52354;SDS011;38286;51.156;17.038;2022-12-05T06:55:44;49.30;;;20.55;;
52354;SDS011;38286;51.156;17.038;2022-12-05T06:58:18;55.80;;;20.80;;
52354;SDS011;38286;51.156;17.038;2022-12-05T07:00:44;60.33;;;23.33;;
52354;SDS011;38286;51.156;17.038;2022-12-05T07:03:28;57.45;;;21.48;;
52354;SDS011;38286;51.156;17.038;2022-12-05T07:05:54;50.45;;;20.80;;
52354;SDS011;38286;51.156;17.038;2022-12-05T07:08:19;53.38;;;21.98;;
52354;SDS011;38286;51.156;17.038;2022-12-05T07:10:51;47.33;;;19.48;;
52354;SDS011;38286;51.156;17.038;2022-12-05T07:13:17;50.08;;;20.35;;
52354;SDS011;38286;51.156;17.038;2022-12-05T07:15:47;48.22;;;20.92;;
52354;SDS011;38286;51.156;17.038;2022-12-05T07:18:13;51.55;;;20.92;;
52354;SDS011;38286;51.156;17.038;2022-12-05T07:20:40;48.80;;;22.13;;
52354;SDS011;38286;51.156;17.038;2022-12-05T07:23:06;48.70;;;20.75;;
52354;SDS011;38286;51.156;17.038;2022-12-05T07:25:32;50.58;;;20.33;;
52354;SDS011;38286;51.156;17.038;2022-12-05T07:27:57;49.30;;;18.75;;
52354;SDS011;38286;51.156;17.038;2022-12-05T07:30:23;52.33;;;21.77;;
52354;SDS011;38286;51.156;17.038;2022-12-05T07:32:48;46.75;;;20.30;;
52354;SDS011;38286;51.156;17.038;2022-12-05T07:35:14;44.95;;;20.33;;
52354;SDS011;38286;51.156;17.038;2022-12-05T07:37:40;50.63;;;19.95;;
52354;SDS011;38286;51.156;17.038;2022-12-05T07:40:06;49.25;;;20.95;;
52354;SDS011;38286;51.156;17.038;2022-12-05T07:42:32;50.22;;;20.85;;
52354;SDS011;38286;51.156;17.038;2022-12-05T07:44:58;49.10;;;21.45;;
52354;SDS011;38286;51.156;17.038;2022-12-05T07:47:23;54.38;;;19.85;;
52354;SDS011;38286;51.156;17.038;2022-12-05T07:49:49;53.13;;;21.50;;
52354;SDS011;38286;51.156;17.038;2022-12-05T07:52:14;49.22;;;20.25;;
52354;SDS011;38286;51.156;17.038;2022-12-05T07:54:40;47.97;;;19.58;;
52354;SDS011;38286;51.156;17.038;2022-12-05T07:57:06;45.67;;;20.50;;
52354;SDS011;38286;51.156;17.038;2022-12-05T07:59:31;49.75;;;20.15;;
52354;SDS011;38286;51.156;17.038;2022-12-05T08:01:57;48.38;;;20.02;;
52354;SDS011;38286;51.156;17.038;2022-12-05T08:04:23;40.60;;;16.52;;
52354;SDS011;38286;51.156;17.038;2022-12-05T08:06:48;45.40;;;18.92;;
52354;SDS011;38286;51.156;17.038;2022-12-05T08:09:14;48.35;;;19.27;;
52354;SDS011;38286;51.156;17.038;2022-12-05T08:11:39;50.80;;;19.05;;
52354;SDS011;38286;51.156;17.038;2022-12-05T08:14:05;55.88;;;20.13;;
52354;SDS011;38286;51.156;17.038;2022-12-05T08:16:31;48.33;;;19.50;;
52354;SDS011;38286;51.156;17.038;2022-12-05T08:19:05;49.05;;;21.23;;
52354;SDS011;38286;51.156;17.038;2022-12-05T08:21:32;48.33;;;20.60;;
52354;SDS011;38286;51.156;17.038;2022-12-05T08:23:58;54.47;;;22.15;;
52354;SDS011;38286;51.156;17.038;2022-12-05T08:26:27;57.13;;;21.33;;
52354;SDS011;38286;51.156;17.038;2022-12-05T08:28:55;49.63;;;21.10;;
52354;SDS011;38286;51.156;17.038;2022-12-05T08:31:22;60.65;;;21.05;;
52354;SDS011;38286;51.156;17.038;2022-12-05T08:33:49;47.70;;;20.33;;
52354;SDS011;38286;51.156;17.038;2022-12-05T08:36:16;51.15;;;22.02;;
52354;SDS011;38286;51.156;17.038;2022-12-05T08:38:43;46.22;;;19.95;;
52354;SDS011;38286;51.156;17.038;2022-12-05T08:41:09;45.80;;;19.52;;
52354;SDS011;38286;51.156;17.038;2022-12-05T08:43:36;49.25;;;20.40;;
52354;SDS011;38286;51.156;17.038;2022-12-05T08:46:02;47.22;;;19.88;;
52354;SDS011;38286;51.156;17.038;2022-12-05T08:48:29;51.70;;;20.55;;
52354;SDS011;38286;51.156;17.038;2022-12-05T08:50:56;51.15;;;21.23;;
52354;SDS011;38286;51.156;17.038;2022-12-05T08:53:22;51.60;;;21.15;;
52354;SDS011;38286;51.156;17.038;2022-12-05T08:55:47;54.97;;;20.58;;
52354;SDS011;38286;51.156;17.038;2022-12-05T08:58:13;54.63;;;22.10;;
52354;SDS011;38286;51.156;17.038;2022-12-05T09:00:39;59.58;;;23.15;;
52354;SDS011;38286;51.156;17.038;2022-12-05T09:03:05;53.85;;;21.98;;
52354;SDS011;38286;51.156;17.038;2022-12-05T09:05:32;52.22;;;21.70;;
52354;SDS011;38286;51.156;17.038;2022-12-05T09:07:57;47.65;;;20.02;;
52354;SDS011;38286;51.156;17.038;2022-12-05T09:10:24;53.13;;;21.70;;
52354;SDS011;38286;51.156;17.038;2022-12-05T09:12:50;49.10;;;20.77;;
52354;SDS011;38286;51.156;17.038;2022-12-05T09:15:16;51.97;;;21.70;;
52354;SDS011;38286;51.156;17.038;2022-12-05T09:17:42;52.53;;;21.58;;
52354;SDS011;38286;51.156;17.038;2022-12-05T09:20:08;52.33;;;20.85;;
52354;SDS011;38286;51.156;17.038;2022-12-05T09:22:36;50.67;;;21.52;;
52354;SDS011;38286;51.156;17.038;2022-12-05T09:25:01;53.28;;;22.02;;
52354;SDS011;38286;51.156;17.038;2022-12-05T09:27:27;47.85;;;21.42;;
52354;SDS011;38286;51.156;17.038;2022-12-05T09:29:53;50.10;;;21.00;;
52354;SDS011;38286;51.156;17.038;2022-12-05T09:32:19;50.55;;;22.35;;
52354;SDS011;38286;51.156;17.038;2022-12-05T09:34:44;51.55;;;22.27;;
52354;SDS011;38286;51.156;17.038;2022-12-05T09:37:10;50.53;;;22.02;;
52354;SDS011;38286;51.156;17.038;2022-12-05T09:39:36;49.38;;;20.90;;
52354;SDS011;38286;51.156;17.038;2022-12-05T09:47:50;49.92;;;21.10;;
52354;SDS011;38286;51.156;17.038;2022-12-05T09:50:22;47.35;;;18.42;;
52354;SDS011;38286;51.156;17.038;2022-12-05T10:18:11;58.60;;;23.38;;
52354;SDS011;38286;51.156;17.038;2022-12-05T10:20:49;45.03;;;18.05;;
52354;SDS011;38286;51.156;17.038;2022-12-05T10:23:23;57.05;;;22.35;;
52354;SDS011;38286;51.156;17.038;2022-12-05T10:25:55;57.42;;;23.02;;
52354;SDS011;38286;51.156;17.038;2022-12-05T10:28:27;55.28;;;22.08;;
52354;SDS011;38286;51.156;17.038;2022-12-05T10:30:57;63.67;;;24.13;;
52354;SDS011;38286;51.156;17.038;2022-12-05T10:33:26;58.50;;;23.35;;
52354;SDS011;38286;51.156;17.038;2022-12-05T10:35:54;52.13;;;22.23;;
52354;SDS011;38286;51.156;17.038;2022-12-05T10:38:24;57.65;;;23.40;;
52354;SDS011;38286;51.156;17.038;2022-12-05T10:40:53;56.05;;;23.85;;
52354;SDS011;38286;51.156;17.038;2022-12-05T10:43:24;56.20;;;23.40;;
52354;SDS011;38286;51.156;17.038;2022-12-05T10:45:50;59.08;;;24.88;;
52354;SDS011;38286;51.156;17.038;2022-12-05T10:48:17;58.72;;;22.70;;
52354;SDS011;38286;51.156;17.038;2022-12-05T10:50:44;56.20;;;22.85;;
52354;SDS011;38286;51.156;17.038;2022-12-05T10:53:35;62.40;;;24.75;;
52354;SDS011;38286;51.156;17.038;2022-12-05T10:59:04;57.88;;;22.65;;
52354;SDS011;38286;51.156;17.038;2022-12-05T11:01:30;58.78;;;22.95;;
52354;SDS011;38286;51.156;17.038;2022-12-05T11:04:00;62.75;;;23.85;;
52354;SDS011;38286;51.156;17.038;2022-12-05T11:06:29;56.63;;;22.08;;
52354;SDS011;38286;51.156;17.038;2022-12-05T11:08:57;64.75;;;24.42;;
52354;SDS011;38286;51.156;17.038;2022-12-05T11:11:25;54.42;;;19.13;;
52354;SDS011;38286;51.156;17.038;2022-12-05T11:14:35;62.28;;;23.15;;
52354;SDS011;38286;51.156;17.038;2022-12-05T11:21:47;66.25;;;24.85;;
52354;SDS011;38286;51.156;17.038;2022-12-05T11:24:20;66.50;;;25.40;;
52354;SDS011;38286;51.156;17.038;2022-12-05T11:26:47;57.13;;;21.15;;
52354;SDS011;38286;51.156;17.038;2022-12-05T11:29:30;67.63;;;24.38;;
52354;SDS011;38286;51.156;17.038;2022-12-05T11:32:00;61.72;;;24.77;;
52354;SDS011;38286;51.156;17.038;2022-12-05T11:34:32;60.10;;;24.58;;
52354;SDS011;38286;51.156;17.038;2022-12-05T11:37:09;55.92;;;22.13;;
52354;SDS011;38286;51.156;17.038;2022-12-05T11:39:38;69.22;;;27.27;;
52354;SDS011;38286;51.156;17.038;2022-12-05T11:51:10;68.22;;;27.05;;
52354;SDS011;38286;51.156;17.038;2022-12-05T11:54:16;68.25;;;27.13;;
52354;SDS011;38286;51.156;17.038;2022-12-05T11:56:45;71.28;;;27.92;;
52354;SDS011;38286;51.156;17.038;2022-12-05T11:59:19;64.57;;;26.80;;
52354;SDS011;38286;51.156;17.038;2022-12-05T12:04:50;75.63;;;27.75;;
52354;SDS011;38286;51.156;17.038;2022-12-05T12:12:38;68.88;;;26.17;;
52354;SDS011;38286;51.156;17.038;2022-12-05T12:15:26;75.70;;;29.47;;
52354;SDS011;38286;51.156;17.038;2022-12-05T12:21:18;76.70;;;27.90;;
52354;SDS011;38286;51.156;17.038;2022-12-05T12:24:10;74.93;;;28.33;;
52354;SDS011;38286;51.156;17.038;2022-12-05T12:34:47;75.20;;;27.00;;
52354;SDS011;38286;51.156;17.038;2022-12-05T12:37:30;74.78;;;29.48;;
52354;SDS011;38286;51.156;17.038;2022-12-05T12:40:11;74.05;;;26.50;;
52354;SDS011;38286;51.156;17.038;2022-12-05T12:42:47;81.65;;;29.20;;
52354;SDS011;38286;51.156;17.038;2022-12-05T12:50:34;81.68;;;29.80;;
52354;SDS011;38286;51.156;17.038;2022-12-05T12:58:52;81.25;;;31.27;;
52354;SDS011;38286;51.156;17.038;2022-12-05T13:04:05;85.07;;;30.92;;
52354;SDS011;38286;51.156;17.038;2022-12-05T13:06:39;87.55;;;31.58;;
52354;SDS011;38286;51.156;17.038;2022-12-05T13:09:11;81.60;;;31.58;;
52354;SDS011;38286;51.156;17.038;2022-12-05T13:11:39;86.40;;;31.80;;
52354;SDS011;38286;51.156;17.038;2022-12-05T13:14:14;88.50;;;33.15;;
52354;SDS011;38286;51.156;17.038;2022-12-05T13:16:41;80.72;;;32.15;;
52354;SDS011;38286;51.156;17.038;2022-12-05T13:19:23;101.38;;;33.72;;
52354;SDS011;38286;51.156;17.038;2022-12-05T13:21:50;82.13;;;31.58;;
52354;SDS011;38286;51.156;17.038;2022-12-05T13:24:17;86.10;;;30.55;;
52354;SDS011;38286;51.156;17.038;2022-12-05T13:26:45;86.47;;;31.27;;
52354;SDS011;38286;51.156;17.038;2022-12-05T13:29:20;77.93;;;29.50;;
52354;SDS011;38286;51.156;17.038;2022-12-05T13:31:48;74.80;;;29.15;;
52354;SDS011;38286;51.156;17.038;2022-12-05T13:37:00;87.13;;;31.02;;
52354;SDS011;38286;51.156;17.038;2022-12-05T13:39:53;73.95;;;28.73;;
52354;SDS011;38286;51.156;17.038;2022-12-05T13:42:39;77.63;;;30.23;;
52354;SDS011;38286;51.156;17.038;2022-12-05T13:45:16;75.45;;;28.58;;
52354;SDS011;38286;51.156;17.038;2022-12-05T13:50:16;72.80;;;28.35;;
52354;SDS011;38286;51.156;17.038;2022-12-05T13:52:48;67.47;;;26.95;;
52354;SDS011;38286;51.156;17.038;2022-12-05T13:55:30;83.28;;;33.20;;
52354;SDS011;38286;51.156;17.038;2022-12-05T13:57:58;72.32;;;29.20;;
52354;SDS011;38286;51.156;17.038;2022-12-05T14:00:26;74.90;;;30.85;;
52354;SDS011;38286;51.156;17.038;2022-12-05T14:02:58;77.25;;;30.27;;
52354;SDS011;38286;51.156;17.038;2022-12-05T14:15:52;75.40;;;28.73;;
52354;SDS011;38286;51.156;17.038;2022-12-05T14:18:29;79.38;;;29.58;;
52354;SDS011;38286;51.156;17.038;2022-12-05T14:26:55;100.20;;;32.25;;
52354;SDS011;38286;51.156;17.038;2022-12-05T14:34:48;88.63;;;32.30;;
52354;SDS011;38286;51.156;17.038;2022-12-05T14:37:23;77.25;;;30.42;;
52354;SDS011;38286;51.156;17.038;2022-12-05T14:40:01;82.63;;;30.98;;
52354;SDS011;38286;51.156;17.038;2022-12-05T14:42:35;85.40;;;31.88;;
52354;SDS011;38286;51.156;17.038;2022-12-05T14:45:21;75.55;;;30.23;;
52354;SDS011;38286;51.156;17.038;2022-12-05T14:48:35;83.45;;;31.88;;
52354;SDS011;38286;51.156;17.038;2022-12-05T14:50:40;75.82;;;28.67;;
52354;SDS011;38286;51.156;17.038;2022-12-05T14:55:43;74.82;;;32.35;;
52354;SDS011;38286;51.156;17.038;2022-12-05T14:58:16;81.80;;;31.00;;
52354;SDS011;38286;51.156;17.038;2022-12-05T15:00:55;82.35;;;30.83;;
52354;SDS011;38286;51.156;17.038;2022-12-05T15:06:34;86.65;;;31.75;;
52354;SDS011;38286;51.156;17.038;2022-12-05T15:09:09;88.45;;;32.83;;
52354;SDS011;38286;51.156;17.038;2022-12-05T15:11:52;81.38;;;32.55;;
52354;SDS011;38286;51.156;17.038;2022-12-05T15:14:18;77.85;;;31.23;;
52354;SDS011;38286;51.156;17.038;2022-12-05T15:16:45;84.57;;;33.95;;
52354;SDS011;38286;51.156;17.038;2022-12-05T15:19:16;88.03;;;34.20;;
52354;SDS011;38286;51.156;17.038;2022-12-05T15:21:45;86.72;;;32.70;;
52354;SDS011;38286;51.156;17.038;2022-12-05T15:24:13;85.53;;;32.55;;
52354;SDS011;38286;51.156;17.038;2022-12-05T15:29:11;80.20;;;31.05;;
52354;SDS011;38286;51.156;17.038;2022-12-05T15:36:57;82.70;;;32.83;;
52354;SDS011;38286;51.156;17.038;2022-12-05T15:39:28;79.65;;;32.55;;
52354;SDS011;38286;51.156;17.038;2022-12-05T15:41:54;86.65;;;31.67;;
52354;SDS011;38286;51.156;17.038;2022-12-05T15:44:21;88.32;;;33.53;;
52354;SDS011;38286;51.156;17.038;2022-12-05T15:46:53;89.72;;;35.30;;
52354;SDS011;38286;51.156;17.038;2022-12-05T15:49:21;82.80;;;32.08;;
52354;SDS011;38286;51.156;17.038;2022-12-05T15:51:47;84.70;;;33.35;;
52354;SDS011;38286;51.156;17.038;2022-12-05T15:54:16;91.18;;;34.63;;
52354;SDS011;38286;51.156;17.038;2022-12-05T15:56:45;87.80;;;35.17;;
52354;SDS011;38286;51.156;17.038;2022-12-05T15:59:17;85.63;;;34.38;;
52354;SDS011;38286;51.156;17.038;2022-12-05T16:01:48;89.45;;;35.28;;
52354;SDS011;38286;51.156;17.038;2022-12-05T16:04:19;89.38;;;35.15;;
52354;SDS011;38286;51.156;17.038;2022-12-05T16:06:53;85.65;;;36.10;;
52354;SDS011;38286;51.156;17.038;2022-12-05T16:09:23;90.80;;;38.67;;
52354;SDS011;38286;51.156;17.038;2022-12-05T16:11:59;99.65;;;37.70;;
52354;SDS011;38286;51.156;17.038;2022-12-05T16:14:33;102.93;;;40.17;;
52354;SDS011;38286;51.156;17.038;2022-12-05T16:17:04;105.38;;;43.97;;
52354;SDS011;38286;51.156;17.038;2022-12-05T16:19:32;124.40;;;48.50;;
52354;SDS011;38286;51.156;17.038;2022-12-05T16:26:35;107.70;;;43.53;;
52354;SDS011;38286;51.156;17.038;2022-12-05T16:29:00;109.30;;;43.13;;
52354;SDS011;38286;51.156;17.038;2022-12-05T16:31:27;121.97;;;45.38;;
52354;SDS011;38286;51.156;17.038;2022-12-05T16:34:06;122.05;;;47.45;;
52354;SDS011;38286;51.156;17.038;2022-12-05T16:36:37;115.28;;;45.00;;
52354;SDS011;38286;51.156;17.038;2022-12-05T16:39:14;121.28;;;44.95;;
52354;SDS011;38286;51.156;17.038;2022-12-05T16:41:40;113.22;;;46.35;;
52354;SDS011;38286;51.156;17.038;2022-12-05T16:47:00;116.63;;;45.85;;
52354;SDS011;38286;51.156;17.038;2022-12-05T16:54:24;101.22;;;38.53;;
52354;SDS011;38286;51.156;17.038;2022-12-05T16:56:50;88.10;;;35.30;;
52354;SDS011;38286;51.156;17.038;2022-12-05T16:59:23;87.30;;;36.28;;
52354;SDS011;38286;51.156;17.038;2022-12-05T17:01:55;98.40;;;39.15;;
52354;SDS011;38286;51.156;17.038;2022-12-05T17:04:20;102.45;;;40.08;;
52354;SDS011;38286;51.156;17.038;2022-12-05T17:06:46;92.75;;;39.30;;
52354;SDS011;38286;51.156;17.038;2022-12-05T17:09:12;105.00;;;43.63;;
52354;SDS011;38286;51.156;17.038;2022-12-05T17:11:38;103.32;;;41.70;;
52354;SDS011;38286;51.156;17.038;2022-12-05T17:14:05;95.45;;;38.72;;
52354;SDS011;38286;51.156;17.038;2022-12-05T17:16:31;99.63;;;40.20;;
52354;SDS011;38286;51.156;17.038;2022-12-05T17:18:57;102.55;;;44.60;;
52354;SDS011;38286;51.156;17.038;2022-12-05T17:21:24;114.70;;;47.25;;
52354;SDS011;38286;51.156;17.038;2022-12-05T17:23:54;113.78;;;45.25;;
52354;SDS011;38286;51.156;17.038;2022-12-05T17:26:20;102.53;;;43.25;;